Brampton, Canada
Current Conditions -  °F | °C
As of 1:00 AM on Wednesday 28 Jan 2015 (Local Time) from CYYZ Reporting Station
Clear Clear  
Wind Chill: -5°   Ceiling: Unl
Heat Index:   Visibility: 15mi
Dew Point:   Wind: 9mph
Humidity: 67%   Direction: 310°NW
Pressure: 30.16"   Gusts: NA
Location:  43.68°N, 79.76°W
Report Text: CYYZ 280600Z 31008KT 15SM SKC M13/M18 A3016 RMK SLP225
Loading
Personal Weather Stations






























Interactive Weather Map New forecast layout! Learn more

10-Day Weather Forecast

Advertisements
Track Severe Weather on mobile